createdAt,value
2023-03-23T15:59:42.662Z,14.82
2023-03-23T16:02:19.656Z,14.76
2023-03-23T16:04:48.026Z,14.56
2023-03-23T16:07:14.647Z,14.49
2023-03-23T16:09:42.500Z,14.44
2023-03-23T16:12:15.610Z,14.35
2023-03-23T16:14:42.206Z,14.25
2023-03-23T16:17:13.853Z,14.34
2023-03-23T16:19:40.285Z,14.37
2023-03-23T16:22:06.896Z,14.30
2023-03-23T16:24:33.462Z,14.23
2023-03-23T16:26:59.888Z,14.19
2023-03-23T16:29:46.786Z,14.16
2023-03-23T16:32:12.778Z,14.12
2023-03-23T16:34:39.215Z,14.12
2023-03-23T16:37:06.861Z,14.06
2023-03-23T16:39:33.668Z,14.06
2023-03-23T16:42:00.285Z,14.05
2023-03-23T16:44:26.724Z,14.01
2023-03-23T16:46:53.209Z,14.01
2023-03-23T16:49:19.629Z,13.99
2023-03-23T16:51:47.161Z,13.94
2023-03-23T16:54:13.685Z,13.89
2023-03-23T16:56:40.228Z,13.89
2023-03-23T16:59:06.839Z,13.90
2023-03-23T17:01:33.423Z,13.89
2023-03-23T17:03:59.853Z,13.89
2023-03-23T17:06:26.286Z,13.88
2023-03-23T17:08:52.643Z,13.87
2023-03-23T17:11:19.039Z,13.84
2023-03-23T17:13:45.434Z,13.79
2023-03-23T17:16:11.947Z,13.76
2023-03-23T17:18:38.500Z,13.74
2023-03-23T17:21:05.404Z,13.71
2023-03-23T17:23:32.298Z,13.66
2023-03-23T17:25:58.785Z,13.65
2023-03-23T17:28:25.902Z,13.61
2023-03-23T17:30:53.178Z,13.57
2023-03-23T17:33:19.564Z,13.51
2023-03-23T17:35:47.375Z,13.48
2023-03-23T17:38:14.207Z,13.41
2023-03-23T17:40:40.794Z,13.38
2023-03-23T17:43:07.294Z,13.36
2023-03-23T17:45:33.853Z,13.31
2023-03-23T17:48:00.495Z,13.30
2023-03-23T17:50:27.473Z,13.30
2023-03-23T17:52:53.842Z,13.27
2023-03-23T17:55:20.226Z,13.23
2023-03-23T17:57:46.790Z,13.21
2023-03-23T18:00:13.816Z,13.17
2023-03-23T18:02:40.300Z,13.14
2023-03-23T18:05:09.266Z,13.10
2023-03-23T18:07:36.778Z,13.08
2023-03-23T18:10:04.319Z,13.04
2023-03-23T18:12:31.338Z,13.03
2023-03-23T18:14:58.446Z,13.02
2023-03-23T18:17:25.771Z,13.01
2023-03-23T18:19:52.273Z,12.98
2023-03-23T18:22:18.894Z,12.97
2023-03-23T18:24:45.750Z,12.95
2023-03-23T18:27:12.367Z,12.95
2023-03-23T18:29:38.785Z,12.95
2023-03-23T18:32:07.175Z,12.98
2023-03-23T18:34:34.642Z,12.99
2023-03-23T18:37:01.116Z,12.99
2023-03-23T18:39:28.093Z,12.99
2023-03-23T18:41:54.502Z,12.95
2023-03-23T18:44:20.899Z,12.95
2023-03-23T18:46:47.366Z,12.92
2023-03-23T18:49:13.769Z,12.88
2023-03-23T18:51:40.248Z,12.80
2023-03-23T18:54:06.675Z,12.73
2023-03-23T18:56:33.118Z,12.66
2023-03-23T18:58:59.479Z,12.57
2023-03-23T19:01:26.447Z,12.51
2023-03-23T19:03:53.401Z,12.46
2023-03-23T19:06:22.612Z,12.42
2023-03-23T19:08:50.172Z,12.38
2023-03-23T19:11:17.232Z,12.34
2023-03-23T19:13:53.774Z,12.32
2023-03-23T19:16:27.882Z,12.27
2023-03-23T19:18:54.334Z,12.26
2023-03-23T19:21:25.322Z,12.23
2023-03-23T19:23:54.218Z,12.18
2023-03-23T19:26:24.277Z,12.16
2023-03-23T19:31:23.621Z,12.09
2023-03-23T19:33:52.265Z,12.07
2023-03-23T19:36:20.312Z,12.07
2023-03-23T19:38:46.834Z,12.05
2023-03-23T19:41:13.552Z,12.00
2023-03-23T19:43:41.655Z,11.99
2023-03-23T19:46:08.259Z,11.97
2023-03-23T19:48:35.419Z,11.91
2023-03-23T19:51:02.433Z,11.90
2023-03-23T19:53:28.951Z,11.85
2023-03-23T19:55:55.577Z,11.85
2023-03-23T19:58:22.071Z,11.86
2023-03-23T20:00:48.852Z,11.85
2023-03-23T20:03:16.676Z,11.82
2023-03-23T20:05:43.460Z,11.80
2023-03-23T20:08:10.394Z,11.79
2023-03-23T20:10:37.907Z,11.79
2023-03-23T20:13:07.158Z,11.76
2023-03-23T20:15:33.837Z,11.75
2023-03-23T20:18:00.928Z,11.74
2023-03-23T20:20:28.116Z,11.72
2023-03-23T20:22:57.305Z,11.69
2023-03-23T20:25:24.909Z,11.67
2023-03-23T20:27:51.646Z,11.65
2023-03-23T20:30:18.822Z,11.62
2023-03-23T20:32:46.354Z,11.61
2023-03-23T20:35:14.704Z,11.61
2023-03-23T20:37:41.546Z,11.59
2023-03-23T20:40:14.947Z,11.56
2023-03-23T20:42:43.817Z,11.52
2023-03-23T20:45:12.509Z,11.52
2023-03-23T20:47:39.811Z,11.51
2023-03-23T20:50:07.396Z,11.49
2023-03-23T20:52:34.135Z,11.49
2023-03-23T20:55:00.912Z,11.47
2023-03-23T20:57:28.776Z,11.46
2023-03-23T20:59:55.797Z,11.45
2023-03-23T21:02:25.918Z,11.44
2023-03-23T21:04:52.841Z,11.43
2023-03-23T21:07:23.009Z,11.43
2023-03-23T21:09:49.699Z,11.41
2023-03-23T21:12:16.254Z,11.41
2023-03-23T21:14:44.826Z,11.40
2023-03-23T21:17:11.489Z,11.41
2023-03-23T21:19:38.209Z,11.39
2023-03-23T21:22:05.258Z,11.39
2023-03-23T21:24:32.079Z,11.35
2023-03-23T21:27:01.101Z,11.35
2023-03-23T21:29:28.372Z,11.34
2023-03-23T21:32:07.737Z,11.31
2023-03-23T21:34:36.042Z,11.30
2023-03-23T21:37:02.562Z,11.28
2023-03-23T21:39:29.118Z,11.28
2023-03-23T21:41:55.609Z,11.27
2023-03-23T21:44:22.163Z,11.27
2023-03-23T21:46:48.738Z,11.26
2023-03-23T21:49:15.153Z,11.24
2023-03-23T21:51:41.961Z,11.23
2023-03-23T21:54:09.961Z,11.22
2023-03-23T21:56:37.514Z,11.24
2023-03-23T21:59:04.849Z,11.23
2023-03-23T22:01:31.486Z,11.23
2023-03-23T22:03:58.069Z,11.21
2023-03-23T22:06:26.809Z,11.22
2023-03-23T22:08:53.597Z,11.22
2023-03-23T22:11:23.468Z,11.23
2023-03-23T22:13:50.789Z,11.23
2023-03-23T22:16:18.249Z,11.22
2023-03-23T22:18:46.050Z,11.20
2023-03-23T22:21:14.420Z,11.20
2023-03-23T22:23:41.759Z,11.19
2023-03-23T22:26:10.222Z,11.15
2023-03-23T22:28:37.209Z,11.15
2023-03-23T22:31:13.570Z,11.12
2023-03-23T22:33:40.022Z,11.10
2023-03-23T22:36:07.184Z,11.08
2023-03-23T22:38:35.431Z,11.07
2023-03-23T22:41:04.534Z,11.05
2023-03-23T22:43:30.972Z,11.04
2023-03-23T22:45:57.377Z,11.02
2023-03-23T22:48:25.946Z,10.99
2023-03-23T22:50:52.812Z,10.97
2023-03-23T22:53:20.853Z,10.95
2023-03-23T22:55:50.150Z,10.93
2023-03-23T22:58:17.496Z,10.92
2023-03-23T23:00:48.379Z,10.89
2023-03-23T23:03:16.355Z,10.88
2023-03-23T23:05:45.042Z,10.88
2023-03-23T23:08:15.225Z,10.87
2023-03-23T23:10:45.333Z,10.88
2023-03-23T23:13:13.500Z,10.87
2023-03-23T23:15:48.447Z,10.87
2023-03-23T23:18:15.984Z,10.86
2023-03-23T23:20:43.348Z,10.83
2023-03-23T23:23:10.610Z,10.83
2023-03-23T23:25:37.252Z,10.84
2023-03-23T23:28:05.909Z,10.83
2023-03-23T23:30:33.221Z,10.85
2023-03-23T23:33:00.367Z,10.83
2023-03-23T23:35:27.477Z,10.83
2023-03-23T23:37:53.936Z,10.84
2023-03-23T23:40:20.949Z,10.84
2023-03-23T23:42:49.655Z,10.86
2023-03-23T23:45:16.699Z,10.86
2023-03-23T23:47:43.224Z,10.86
2023-03-23T23:50:11.742Z,10.87
2023-03-23T23:52:39.575Z,10.86
2023-03-23T23:55:07.691Z,10.86
2023-03-23T23:57:34.813Z,10.85
